sensor_id;sensor_type;location;lat;lon;timestamp;pressure;altitude;pressure_sealevel;temperature;humidity
3544;BME280;1786;52.870;9.578;2024-03-23T00:54:04;99890.91;;;17.31;54.33
3544;BME280;1786;52.870;9.578;2024-03-23T00:56:29;99886.47;;;17.40;54.27
3544;BME280;1786;52.870;9.578;2024-03-23T00:58:55;99882.00;;;17.14;55.18
3544;BME280;1786;52.870;9.578;2024-03-23T01:01:21;99870.63;;;17.12;55.15
3544;BME280;1786;52.870;9.578;2024-03-23T01:03:47;99874.22;;;17.03;55.17
3544;BME280;1786;52.870;9.578;2024-03-23T01:06:12;99865.44;;;16.84;55.62
3544;BME280;1786;52.870;9.578;2024-03-23T01:08:38;99865.38;;;17.02;55.52
3544;BME280;1786;52.870;9.578;2024-03-23T01:11:04;99863.41;;;17.04;55.49
3544;BME280;1786;52.870;9.578;2024-03-23T01:13:30;99860.09;;;17.11;55.65
3544;BME280;1786;52.870;9.578;2024-03-23T01:15:56;99855.81;;;17.18;55.38
3544;BME280;1786;52.870;9.578;2024-03-23T01:18:23;99871.44;;;17.13;55.00
3544;BME280;1786;52.870;9.578;2024-03-23T01:20:49;99869.44;;;17.06;55.18
3544;BME280;1786;52.870;9.578;2024-03-23T01:23:15;99865.84;;;16.98;55.32
3544;BME280;1786;52.870;9.578;2024-03-23T01:25:40;99864.69;;;17.00;55.28
3544;BME280;1786;52.870;9.578;2024-03-23T01:28:07;99849.31;;;16.94;55.49
3544;BME280;1786;52.870;9.578;2024-03-23T01:30:33;99849.16;;;16.96;55.34
3544;BME280;1786;52.870;9.578;2024-03-23T01:32:59;99845.13;;;16.92;55.80
3544;BME280;1786;52.870;9.578;2024-03-23T01:35:25;99851.81;;;16.96;55.40
3544;BME280;1786;52.870;9.578;2024-03-23T01:37:51;99845.81;;;16.94;55.25
3544;BME280;1786;52.870;9.578;2024-03-23T01:40:16;99844.34;;;16.99;55.24
3544;BME280;1786;52.870;9.578;2024-03-23T01:42:42;99842.78;;;16.89;55.63
3544;BME280;1786;52.870;9.578;2024-03-23T01:45:09;99832.13;;;16.89;55.80
3544;BME280;1786;52.870;9.578;2024-03-23T01:47:37;99833.81;;;16.98;55.25
3544;BME280;1786;52.870;9.578;2024-03-23T01:50:03;99834.38;;;17.01;55.02
3544;BME280;1786;52.870;9.578;2024-03-23T01:52:29;99817.13;;;16.96;55.07
3544;BME280;1786;52.870;9.578;2024-03-23T01:54:55;99815.75;;;16.83;55.47
3544;BME280;1786;52.870;9.578;2024-03-23T01:57:21;99801.09;;;16.96;55.01
3544;BME280;1786;52.870;9.578;2024-03-23T01:59:48;99796.06;;;16.66;55.96
3544;BME280;1786;52.870;9.578;2024-03-23T02:02:22;99799.59;;;16.93;55.12
3544;BME280;1786;52.870;9.578;2024-03-23T02:04:48;99799.13;;;16.98;54.76
3544;BME280;1786;52.870;9.578;2024-03-23T02:07:13;99793.53;;;17.09;54.58
3544;BME280;1786;52.870;9.578;2024-03-23T02:09:39;99788.66;;;17.04;55.03
3544;BME280;1786;52.870;9.578;2024-03-23T02:12:05;99796.38;;;17.16;54.67
3544;BME280;1786;52.870;9.578;2024-03-23T02:14:31;99788.56;;;17.14;54.54
3544;BME280;1786;52.870;9.578;2024-03-23T02:16:57;99779.91;;;17.20;53.95
3544;BME280;1786;52.870;9.578;2024-03-23T02:19:24;99780.56;;;17.22;54.35
3544;BME280;1786;52.870;9.578;2024-03-23T02:21:49;99791.25;;;17.22;54.10
3544;BME280;1786;52.870;9.578;2024-03-23T02:24:15;99790.22;;;17.15;54.49
3544;BME280;1786;52.870;9.578;2024-03-23T02:26:41;99785.69;;;16.81;55.05
3544;BME280;1786;52.870;9.578;2024-03-23T02:29:06;99793.47;;;17.01;54.67
3544;BME280;1786;52.870;9.578;2024-03-23T02:31:32;99780.88;;;17.11;54.28
3544;BME280;1786;52.870;9.578;2024-03-23T02:33:58;99779.72;;;17.14;54.53
3544;BME280;1786;52.870;9.578;2024-03-23T02:36:23;99783.19;;;17.06;54.53
3544;BME280;1786;52.870;9.578;2024-03-23T02:38:49;99781.38;;;17.15;53.92
3544;BME280;1786;52.870;9.578;2024-03-23T02:41:15;99771.84;;;17.12;54.48
3544;BME280;1786;52.870;9.578;2024-03-23T02:43:41;99772.53;;;17.14;54.29
3544;BME280;1786;52.870;9.578;2024-03-23T02:46:06;99780.97;;;17.01;54.27
3544;BME280;1786;52.870;9.578;2024-03-23T02:48:32;99777.31;;;17.02;54.20
3544;BME280;1786;52.870;9.578;2024-03-23T02:50:58;99767.72;;;16.83;55.04
3544;BME280;1786;52.870;9.578;2024-03-23T02:53:24;99763.56;;;16.89;54.51
3544;BME280;1786;52.870;9.578;2024-03-23T02:55:50;99758.41;;;16.96;54.78
3544;BME280;1786;52.870;9.578;2024-03-23T02:58:15;99755.34;;;16.82;54.94
3544;BME280;1786;52.870;9.578;2024-03-23T03:00:41;99760.34;;;16.85;55.07
3544;BME280;1786;52.870;9.578;2024-03-23T03:03:07;99755.88;;;16.86;54.88
3544;BME280;1786;52.870;9.578;2024-03-23T03:05:33;99746.06;;;16.95;54.48
3544;BME280;1786;52.870;9.578;2024-03-23T03:07:59;99748.25;;;16.91;54.30
3544;BME280;1786;52.870;9.578;2024-03-23T03:10:24;99738.06;;;16.95;54.43
3544;BME280;1786;52.870;9.578;2024-03-23T03:12:50;99753.44;;;17.01;54.06
3544;BME280;1786;52.870;9.578;2024-03-23T03:15:16;99738.75;;;16.97;53.96
3544;BME280;1786;52.870;9.578;2024-03-23T03:17:41;99742.94;;;16.99;53.81
3544;BME280;1786;52.870;9.578;2024-03-23T03:20:08;99736.59;;;17.00;53.90
3544;BME280;1786;52.870;9.578;2024-03-23T03:22:39;99744.13;;;17.05;54.23
3544;BME280;1786;52.870;9.578;2024-03-23T03:25:05;99735.75;;;17.00;53.75
3544;BME280;1786;52.870;9.578;2024-03-23T03:27:33;99742.00;;;16.82;54.00
3544;BME280;1786;52.870;9.578;2024-03-23T03:29:59;99749.31;;;16.80;54.08
3544;BME280;1786;52.870;9.578;2024-03-23T03:32:30;99741.03;;;16.83;54.23
3544;BME280;1786;52.870;9.578;2024-03-23T03:34:56;99726.81;;;16.83;54.27
3544;BME280;1786;52.870;9.578;2024-03-23T03:37:21;99727.19;;;16.88;53.95
3544;BME280;1786;52.870;9.578;2024-03-23T03:39:47;99729.03;;;16.87;54.27
3544;BME280;1786;52.870;9.578;2024-03-23T03:42:13;99728.03;;;16.89;53.79
3544;BME280;1786;52.870;9.578;2024-03-23T03:44:38;99722.06;;;16.95;54.11
3544;BME280;1786;52.870;9.578;2024-03-23T03:47:05;99724.69;;;16.86;54.20
3544;BME280;1786;52.870;9.578;2024-03-23T03:49:31;99722.16;;;16.85;54.41
3544;BME280;1786;52.870;9.578;2024-03-23T03:51:57;99721.53;;;16.65;54.75
3544;BME280;1786;52.870;9.578;2024-03-23T03:54:23;99721.53;;;16.65;54.39
3544;BME280;1786;52.870;9.578;2024-03-23T03:56:48;99705.13;;;16.78;54.49
3544;BME280;1786;52.870;9.578;2024-03-23T03:59:15;99704.66;;;16.56;54.75
3544;BME280;1786;52.870;9.578;2024-03-23T04:01:41;99701.44;;;16.53;54.70
3544;BME280;1786;52.870;9.578;2024-03-23T04:04:06;99701.34;;;16.62;54.88
3544;BME280;1786;52.870;9.578;2024-03-23T04:06:32;99703.28;;;16.26;55.70
3544;BME280;1786;52.870;9.578;2024-03-23T04:08:59;99689.25;;;16.50;55.19
3544;BME280;1786;52.870;9.578;2024-03-23T04:11:25;99688.47;;;16.58;55.03
3544;BME280;1786;52.870;9.578;2024-03-23T04:13:50;99693.19;;;16.64;54.40
3544;BME280;1786;52.870;9.578;2024-03-23T04:16:42;99694.53;;;16.68;54.61
3544;BME280;1786;52.870;9.578;2024-03-23T04:19:07;99686.16;;;16.63;54.78
3544;BME280;1786;52.870;9.578;2024-03-23T04:21:33;99688.53;;;16.66;54.33
3544;BME280;1786;52.870;9.578;2024-03-23T04:23:59;99698.06;;;16.69;54.24
3544;BME280;1786;52.870;9.578;2024-03-23T04:26:25;99695.50;;;16.59;54.59
3544;BME280;1786;52.870;9.578;2024-03-23T04:28:51;99693.34;;;16.36;55.08
3544;BME280;1786;52.870;9.578;2024-03-23T04:31:16;99687.47;;;16.51;54.92
3544;BME280;1786;52.870;9.578;2024-03-23T04:33:42;99672.84;;;16.63;54.95
3544;BME280;1786;52.870;9.578;2024-03-23T04:36:08;99656.66;;;16.56;54.56
3544;BME280;1786;52.870;9.578;2024-03-23T04:38:34;99667.34;;;16.64;54.51
3544;BME280;1786;52.870;9.578;2024-03-23T04:41:00;99675.31;;;16.56;54.75
3544;BME280;1786;52.870;9.578;2024-03-23T04:43:27;99682.50;;;16.56;54.76
3544;BME280;1786;52.870;9.578;2024-03-23T04:45:53;99680.78;;;16.55;54.82
3544;BME280;1786;52.870;9.578;2024-03-23T04:48:22;99689.63;;;16.29;54.97
3544;BME280;1786;52.870;9.578;2024-03-23T04:50:48;99690.31;;;15.87;56.64
3544;BME280;1786;52.870;9.578;2024-03-23T04:53:15;99689.72;;;15.93;56.28
3544;BME280;1786;52.870;9.578;2024-03-23T04:55:42;99681.09;;;15.64;56.96
3544;BME280;1786;52.870;9.578;2024-03-23T04:58:08;99679.59;;;15.79;56.56
3544;BME280;1786;52.870;9.578;2024-03-23T05:00:34;99688.78;;;15.85;56.46
3544;BME280;1786;52.870;9.578;2024-03-23T05:03:00;99686.97;;;15.85;56.70
3544;BME280;1786;52.870;9.578;2024-03-23T05:05:26;99677.28;;;15.84;56.74
3544;BME280;1786;52.870;9.578;2024-03-23T05:07:52;99678.09;;;15.31;58.21
3544;BME280;1786;52.870;9.578;2024-03-23T05:10:17;99672.97;;;15.65;56.99
3544;BME280;1786;52.870;9.578;2024-03-23T05:12:43;99672.03;;;15.56;57.02
3544;BME280;1786;52.870;9.578;2024-03-23T05:15:11;99661.25;;;15.76;57.23
3544;BME280;1786;52.870;9.578;2024-03-23T05:17:38;99657.38;;;15.88;56.52
3544;BME280;1786;52.870;9.578;2024-03-23T05:20:04;99656.16;;;15.83;56.41
3544;BME280;1786;52.870;9.578;2024-03-23T05:22:35;99651.88;;;15.90;56.43
3544;BME280;1786;52.870;9.578;2024-03-23T05:25:02;99659.09;;;15.97;56.03
3544;BME280;1786;52.870;9.578;2024-03-23T05:27:32;99656.28;;;15.99;55.77
3544;BME280;1786;52.870;9.578;2024-03-23T05:29:59;99663.03;;;16.11;55.57
3544;BME280;1786;52.870;9.578;2024-03-23T05:32:24;99657.78;;;16.01;55.77
3544;BME280;1786;52.870;9.578;2024-03-23T05:34:50;99651.69;;;16.09;56.00
3544;BME280;1786;52.870;9.578;2024-03-23T05:37:22;99650.16;;;16.07;55.79
3544;BME280;1786;52.870;9.578;2024-03-23T05:39:48;99642.91;;;16.17;55.70
3544;BME280;1786;52.870;9.578;2024-03-23T05:42:18;99633.06;;;16.17;55.68
3544;BME280;1786;52.870;9.578;2024-03-23T05:44:45;99632.00;;;16.28;54.92
3544;BME280;1786;52.870;9.578;2024-03-23T05:47:11;99635.09;;;16.15;55.41
3544;BME280;1786;52.870;9.578;2024-03-23T05:49:40;99635.88;;;16.08;55.89
3544;BME280;1786;52.870;9.578;2024-03-23T05:52:10;99640.94;;;16.19;55.55
3544;BME280;1786;52.870;9.578;2024-03-23T05:54:36;99632.75;;;15.94;55.89
3544;BME280;1786;52.870;9.578;2024-03-23T05:57:03;99640.28;;;15.99;56.23
3544;BME280;1786;52.870;9.578;2024-03-23T05:59:28;99638.72;;;16.14;55.71
3544;BME280;1786;52.870;9.578;2024-03-23T06:01:54;99636.25;;;16.13;55.56
3544;BME280;1786;52.870;9.578;2024-03-23T06:04:20;99621.91;;;16.14;55.98
3544;BME280;1786;52.870;9.578;2024-03-23T06:06:48;99616.56;;;16.14;55.69
3544;BME280;1786;52.870;9.578;2024-03-23T06:09:14;99617.88;;;16.36;55.64
3544;BME280;1786;52.870;9.578;2024-03-23T06:11:40;99613.34;;;16.28;55.74
3544;BME280;1786;52.870;9.578;2024-03-23T06:14:05;99616.84;;;16.29;55.44
3544;BME280;1786;52.870;9.578;2024-03-23T06:16:31;99622.97;;;16.21;55.71
3544;BME280;1786;52.870;9.578;2024-03-23T06:18:57;99622.97;;;16.21;55.65
3544;BME280;1786;52.870;9.578;2024-03-23T06:21:24;99631.75;;;16.13;55.91
3544;BME280;1786;52.870;9.578;2024-03-23T06:23:54;99628.19;;;16.31;55.54
3544;BME280;1786;52.870;9.578;2024-03-23T06:26:20;99626.44;;;16.21;56.41
3544;BME280;1786;52.870;9.578;2024-03-23T06:28:46;99627.66;;;16.27;55.82
3544;BME280;1786;52.870;9.578;2024-03-23T06:31:12;99627.50;;;15.85;56.76
3544;BME280;1786;52.870;9.578;2024-03-23T06:33:38;99629.63;;;16.25;56.27
3544;BME280;1786;52.870;9.578;2024-03-23T06:36:05;99632.72;;;16.38;56.04
3544;BME280;1786;52.870;9.578;2024-03-23T06:38:31;99625.88;;;16.36;55.64
3544;BME280;1786;52.870;9.578;2024-03-23T06:40:57;99622.31;;;16.27;56.23
3544;BME280;1786;52.870;9.578;2024-03-23T06:43:23;99628.59;;;16.18;56.13
3544;BME280;1786;52.870;9.578;2024-03-23T06:45:53;99630.81;;;16.05;56.39
3544;BME280;1786;52.870;9.578;2024-03-23T06:48:20;99643.59;;;16.19;56.22
3544;BME280;1786;52.870;9.578;2024-03-23T06:50:46;99632.38;;;16.33;56.27
3544;BME280;1786;52.870;9.578;2024-03-23T06:53:12;99639.22;;;16.36;55.63
3544;BME280;1786;52.870;9.578;2024-03-23T06:55:38;99632.94;;;16.19;56.50
3544;BME280;1786;52.870;9.578;2024-03-23T06:58:04;99625.50;;;16.65;56.16
3544;BME280;1786;52.870;9.578;2024-03-23T07:00:30;99623.31;;;16.86;56.70
3544;BME280;1786;52.870;9.578;2024-03-23T07:02:56;99632.78;;;17.32;55.06
3544;BME280;1786;52.870;9.578;2024-03-23T07:05:22;99633.16;;;17.94;54.50
3544;BME280;1786;52.870;9.578;2024-03-23T07:07:47;99639.31;;;18.83;53.88
3544;BME280;1786;52.870;9.578;2024-03-23T07:10:13;99639.34;;;20.06;52.71
3544;BME280;1786;52.870;9.578;2024-03-23T07:12:39;99635.03;;;21.31;48.06
3544;BME280;1786;52.870;9.578;2024-03-23T07:15:05;99641.50;;;22.22;46.75
3544;BME280;1786;52.870;9.578;2024-03-23T07:17:31;99644.31;;;22.77;44.33
3544;BME280;1786;52.870;9.578;2024-03-23T07:19:58;99645.19;;;22.84;43.57
3544;BME280;1786;52.870;9.578;2024-03-23T07:22:24;99647.78;;;22.64;43.40
3544;BME280;1786;52.870;9.578;2024-03-23T07:24:49;99653.72;;;22.25;43.32
3544;BME280;1786;52.870;9.578;2024-03-23T07:27:15;99636.69;;;21.10;45.00
3544;BME280;1786;52.870;9.578;2024-03-23T07:29:41;99632.13;;;20.60;44.89
3544;BME280;1786;52.870;9.578;2024-03-23T07:32:06;99636.47;;;20.61;45.88
3544;BME280;1786;52.870;9.578;2024-03-23T07:34:32;99636.84;;;20.72;46.80
3544;BME280;1786;52.870;9.578;2024-03-23T07:36:58;99631.31;;;21.10;46.54
3544;BME280;1786;52.870;9.578;2024-03-23T07:39:24;99637.22;;;22.07;46.03
3544;BME280;1786;52.870;9.578;2024-03-23T07:41:50;99638.50;;;23.15;46.64
3544;BME280;1786;52.870;9.578;2024-03-23T07:44:16;99639.91;;;25.04;42.32
3544;BME280;1786;52.870;9.578;2024-03-23T07:46:42;99652.44;;;26.87;39.24
3544;BME280;1786;52.870;9.578;2024-03-23T07:49:08;99652.44;;;28.43;37.69
3544;BME280;1786;52.870;9.578;2024-03-23T07:51:33;99659.09;;;29.40;36.45
3544;BME280;1786;52.870;9.578;2024-03-23T07:54:00;99665.97;;;30.39;34.74
3544;BME280;1786;52.870;9.578;2024-03-23T07:56:26;99668.88;;;31.10;34.49
3544;BME280;1786;52.870;9.578;2024-03-23T07:58:51;99672.88;;;31.52;32.76
3544;BME280;1786;52.870;9.578;2024-03-23T08:01:17;99663.81;;;32.05;31.37
3544;BME280;1786;52.870;9.578;2024-03-23T08:03:44;99665.66;;;31.67;32.29
3544;BME280;1786;52.870;9.578;2024-03-23T08:06:18;99663.41;;;31.91;32.50
3544;BME280;1786;52.870;9.578;2024-03-23T08:08:47;99663.59;;;32.12;32.08
3544;BME280;1786;52.870;9.578;2024-03-23T08:11:13;99660.41;;;32.63;30.34
3544;BME280;1786;52.870;9.578;2024-03-23T08:13:40;99659.34;;;31.13;31.68
3544;BME280;1786;52.870;9.578;2024-03-23T08:16:07;99657.41;;;31.35;32.09
3544;BME280;1786;52.870;9.578;2024-03-23T08:18:34;99656.16;;;31.43;30.94
3544;BME280;1786;52.870;9.578;2024-03-23T08:21:04;99652.38;;;31.49;32.50
3544;BME280;1786;52.870;9.578;2024-03-23T08:23:32;99646.19;;;31.10;32.41
3544;BME280;1786;52.870;9.578;2024-03-23T08:26:08;99636.91;;;30.11;31.75
3544;BME280;1786;52.870;9.578;2024-03-23T08:28:34;99630.38;;;29.04;32.81
3544;BME280;1786;52.870;9.578;2024-03-23T08:31:03;99620.91;;;27.53;34.24
3544;BME280;1786;52.870;9.578;2024-03-23T08:33:29;99613.34;;;25.64;36.95
3544;BME280;1786;52.870;9.578;2024-03-23T08:36:00;99614.22;;;25.26;38.25
3544;BME280;1786;52.870;9.578;2024-03-23T08:38:27;99613.50;;;24.99;38.50
3544;BME280;1786;52.870;9.578;2024-03-23T08:41:01;99618.84;;;24.68;38.60
3544;BME280;1786;52.870;9.578;2024-03-23T08:43:29;99610.69;;;24.74;38.48
3544;BME280;1786;52.870;9.578;2024-03-23T08:46:05;99617.69;;;24.95;37.90
3544;BME280;1786;52.870;9.578;2024-03-23T08:48:35;99618.97;;;24.86;38.63
3544;BME280;1786;52.870;9.578;2024-03-23T08:51:08;99616.22;;;23.81;39.12
3544;BME280;1786;52.870;9.578;2024-03-23T08:53:38;99607.34;;;23.74;39.63
3544;BME280;1786;52.870;9.578;2024-03-23T08:56:04;99611.34;;;23.17;40.81
3544;BME280;1786;52.870;9.578;2024-03-23T08:58:32;99608.44;;;23.11;40.39
3544;BME280;1786;52.870;9.578;2024-03-23T09:01:08;99611.88;;;22.51;39.93
3544;BME280;1786;52.870;9.578;2024-03-23T09:03:34;99615.06;;;21.55;41.48
3544;BME280;1786;52.870;9.578;2024-03-23T09:06:02;99607.78;;;21.12;42.18
3544;BME280;1786;52.870;9.578;2024-03-23T09:08:28;99607.28;;;20.28;43.23
3544;BME280;1786;52.870;9.578;2024-03-23T09:10:53;99605.47;;;19.44;44.16
3544;BME280;1786;52.870;9.578;2024-03-23T09:13:20;99588.50;;;18.75;45.64
3544;BME280;1786;52.870;9.578;2024-03-23T09:15:47;99598.25;;;18.51;46.50
3544;BME280;1786;52.870;9.578;2024-03-23T09:18:14;99593.53;;;18.22;47.17
3544;BME280;1786;52.870;9.578;2024-03-23T09:20:39;99595.25;;;18.54;46.28
3544;BME280;1786;52.870;9.578;2024-03-23T09:23:05;99596.59;;;18.50;46.68
3544;BME280;1786;52.870;9.578;2024-03-23T09:25:31;99595.00;;;18.33;46.87
3544;BME280;1786;52.870;9.578;2024-03-23T09:27:58;99600.38;;;18.16;46.57
3544;BME280;1786;52.870;9.578;2024-03-23T09:30:23;99601.59;;;17.81;47.49
3544;BME280;1786;52.870;9.578;2024-03-23T09:32:49;99591.41;;;17.85;48.86
3544;BME280;1786;52.870;9.578;2024-03-23T09:35:15;99586.00;;;18.17;48.47
3544;BME280;1786;52.870;9.578;2024-03-23T09:37:41;99577.72;;;18.91;48.33
3544;BME280;1786;52.870;9.578;2024-03-23T09:40:10;99575.59;;;19.56;45.29
3544;BME280;1786;52.870;9.578;2024-03-23T09:42:37;99575.34;;;19.88;44.49
3544;BME280;1786;52.870;9.578;2024-03-23T09:45:05;99576.72;;;19.61;43.94
3544;BME280;1786;52.870;9.578;2024-03-23T09:47:32;99583.81;;;19.08;43.73
3544;BME280;1786;52.870;9.578;2024-03-23T09:50:00;99572.13;;;18.62;45.33
3544;BME280;1786;52.870;9.578;2024-03-23T09:52:27;99578.97;;;19.03;45.32
3544;BME280;1786;52.870;9.578;2024-03-23T09:54:52;99575.50;;;19.26;45.79
3544;BME280;1786;52.870;9.578;2024-03-23T09:57:18;99583.34;;;19.74;45.06
3544;BME280;1786;52.870;9.578;2024-03-23T09:59:44;99574.31;;;19.89;43.41
3544;BME280;1786;52.870;9.578;2024-03-23T10:02:09;99579.66;;;20.93;43.94
3544;BME280;1786;52.870;9.578;2024-03-23T10:04:41;99576.97;;;21.51;43.77
3544;BME280;1786;52.870;9.578;2024-03-23T10:07:11;99567.44;;;21.98;41.40
3544;BME280;1786;52.870;9.578;2024-03-23T10:09:37;99566.84;;;22.31;41.64
3544;BME280;1786;52.870;9.578;2024-03-23T10:14:35;99594.97;;;22.63;40.67
3544;BME280;1786;52.870;9.578;2024-03-23T10:17:21;99599.66;;;19.64;42.17
3544;BME280;1786;52.870;9.578;2024-03-23T10:19:51;99636.47;;;17.63;46.79
3544;BME280;1786;52.870;9.578;2024-03-23T10:22:18;99643.09;;;16.50;48.96
3544;BME280;1786;52.870;9.578;2024-03-23T10:24:45;99634.41;;;16.13;50.55
3544;BME280;1786;52.870;9.578;2024-03-23T10:27:20;99634.75;;;15.21;52.42
3544;BME280;1786;52.870;9.578;2024-03-23T10:29:47;99626.31;;;14.80;53.74
3544;BME280;1786;52.870;9.578;2024-03-23T10:32:14;99632.72;;;14.87;54.16
3544;BME280;1786;52.870;9.578;2024-03-23T10:34:40;99632.41;;;14.90;54.40
3544;BME280;1786;52.870;9.578;2024-03-23T10:37:07;99619.06;;;14.35;54.28
3544;BME280;1786;52.870;9.578;2024-03-23T10:42:05;99607.56;;;14.44;53.94
3544;BME280;1786;52.870;9.578;2024-03-23T10:44:32;99599.88;;;14.96;53.81
3544;BME280;1786;52.870;9.578;2024-03-23T10:46:58;99604.78;;;15.54;52.56
3544;BME280;1786;52.870;9.578;2024-03-23T10:49:29;99605.06;;;15.87;52.72
3544;BME280;1786;52.870;9.578;2024-03-23T10:51:59;99610.19;;;16.07;53.47
3544;BME280;1786;52.870;9.578;2024-03-23T10:54:26;99610.47;;;16.56;52.75
3544;BME280;1786;52.870;9.578;2024-03-23T10:57:01;99610.34;;;17.08;52.51
3544;BME280;1786;52.870;9.578;2024-03-23T10:59:28;99611.41;;;17.40;51.52
3544;BME280;1786;52.870;9.578;2024-03-23T11:01:58;99610.09;;;17.60;51.01
3544;BME280;1786;52.870;9.578;2024-03-23T11:04:37;99623.47;;;17.77;52.69
3544;BME280;1786;52.870;9.578;2024-03-23T11:09:52;99612.44;;;18.04;51.57
3544;BME280;1786;52.870;9.578;2024-03-23T11:14:47;99603.75;;;17.78;53.37
3544;BME280;1786;52.870;9.578;2024-03-23T11:17:20;99604.22;;;18.70;53.74
3544;BME280;1786;52.870;9.578;2024-03-23T11:22:44;99596.31;;;19.62;49.70
3544;BME280;1786;52.870;9.578;2024-03-23T11:25:17;99585.59;;;19.62;49.02
3544;BME280;1786;52.870;9.578;2024-03-23T11:27:44;99588.94;;;19.64;48.41
3544;BME280;1786;52.870;9.578;2024-03-23T11:30:21;99592.97;;;19.68;48.16
3544;BME280;1786;52.870;9.578;2024-03-23T11:32:54;99579.66;;;19.29;48.15
3544;BME280;1786;52.870;9.578;2024-03-23T11:38:08;99575.59;;;19.79;46.24
3544;BME280;1786;52.870;9.578;2024-03-23T11:40:36;99578.81;;;19.05;47.34
3544;BME280;1786;52.870;9.578;2024-03-23T11:43:04;99605.56;;;17.61;49.70
3544;BME280;1786;52.870;9.578;2024-03-23T11:45:42;99590.00;;;16.30;49.60
3544;BME280;1786;52.870;9.578;2024-03-23T11:48:13;99584.00;;;16.02;50.86
3544;BME280;1786;52.870;9.578;2024-03-23T11:50:40;99575.31;;;16.18;51.23
3544;BME280;1786;52.870;9.578;2024-03-23T11:53:18;99569.44;;;16.14;51.94
3544;BME280;1786;52.870;9.578;2024-03-23T11:55:51;99556.25;;;15.61;55.36
3544;BME280;1786;52.870;9.578;2024-03-23T11:58:18;99575.75;;;16.48;55.08
3544;BME280;1786;52.870;9.578;2024-03-23T12:01:00;99564.13;;;16.22;55.27
3544;BME280;1786;52.870;9.578;2024-03-23T12:03:28;99563.94;;;16.93;56.80
3544;BME280;1786;52.870;9.578;2024-03-23T12:05:55;99567.50;;;17.50;55.01
3544;BME280;1786;52.870;9.578;2024-03-23T12:08:29;99567.16;;;17.78;54.25
3544;BME280;1786;52.870;9.578;2024-03-23T12:13:37;99560.66;;;17.72;53.89
3544;BME280;1786;52.870;9.578;2024-03-23T12:16:19;99559.31;;;17.36;51.84
3544;BME280;1786;52.870;9.578;2024-03-23T12:18:47;99565.78;;;18.15;52.68
3544;BME280;1786;52.870;9.578;2024-03-23T12:21:13;99559.91;;;18.28;52.22
3544;BME280;1786;52.870;9.578;2024-03-23T12:23:39;99555.25;;;18.61;51.25
3544;BME280;1786;52.870;9.578;2024-03-23T12:26:05;99569.53;;;18.93;49.14
3544;BME280;1786;52.870;9.578;2024-03-23T12:28:32;99569.44;;;18.78;48.06
3544;BME280;1786;52.870;9.578;2024-03-23T12:30:58;99562.94;;;18.16;47.96
3544;BME280;1786;52.870;9.578;2024-03-23T12:33:24;99559.63;;;18.06;47.50
3544;BME280;1786;52.870;9.578;2024-03-23T12:35:50;99567.44;;;18.16;48.03
3544;BME280;1786;52.870;9.578;2024-03-23T12:38:16;99558.97;;;18.04;50.04
3544;BME280;1786;52.870;9.578;2024-03-23T12:40:49;99558.72;;;18.30;48.83
3544;BME280;1786;52.870;9.578;2024-03-23T12:43:18;99552.66;;;17.64;48.36
3544;BME280;1786;52.870;9.578;2024-03-23T12:45:48;99552.66;;;17.48;47.36
3544;BME280;1786;52.870;9.578;2024-03-23T12:48:14;99555.19;;;17.41;49.08
3544;BME280;1786;52.870;9.578;2024-03-23T12:50:39;99546.66;;;17.21;49.52
3544;BME280;1786;52.870;9.578;2024-03-23T12:53:05;99553.31;;;17.34;49.93
3544;BME280;1786;52.870;9.578;2024-03-23T12:55:31;99549.47;;;17.61;49.30
3544;BME280;1786;52.870;9.578;2024-03-23T12:57:56;99561.63;;;18.12;48.03
3544;BME280;1786;52.870;9.578;2024-03-23T13:00:22;99555.63;;;18.10;47.24
3544;BME280;1786;52.870;9.578;2024-03-23T13:02:48;99559.66;;;17.65;48.12
3544;BME280;1786;52.870;9.578;2024-03-23T13:05:13;99556.41;;;16.88;49.03
3544;BME280;1786;52.870;9.578;2024-03-23T13:07:39;99551.66;;;17.24;50.05
3544;BME280;1786;52.870;9.578;2024-03-23T13:10:05;99555.97;;;17.99;49.27
3544;BME280;1786;52.870;9.578;2024-03-23T13:12:32;99550.91;;;18.21;47.79
3544;BME280;1786;52.870;9.578;2024-03-23T13:15:02;99547.63;;;17.86;48.26
3544;BME280;1786;52.870;9.578;2024-03-23T13:17:29;99545.53;;;18.68;47.53
3544;BME280;1786;52.870;9.578;2024-03-23T13:19:56;99534.56;;;18.86;46.35
3544;BME280;1786;52.870;9.578;2024-03-23T13:22:22;99548.22;;;18.21;48.00
3544;BME280;1786;52.870;9.578;2024-03-23T13:24:48;99588.69;;;17.27;48.08
3544;BME280;1786;52.870;9.578;2024-03-23T13:27:13;99591.53;;;15.27;50.46
3544;BME280;1786;52.870;9.578;2024-03-23T13:29:39;99598.75;;;14.99;51.34
3544;BME280;1786;52.870;9.578;2024-03-23T13:32:05;99595.16;;;13.68;52.82
3544;BME280;1786;52.870;9.578;2024-03-23T13:34:31;99586.91;;;13.81;53.24
3544;BME280;1786;52.870;9.578;2024-03-23T13:36:58;99601.25;;;13.88;52.89
3544;BME280;1786;52.870;9.578;2024-03-23T13:39:24;99599.19;;;13.82;53.74
3544;BME280;1786;52.870;9.578;2024-03-23T13:41:50;99593.44;;;13.96;54.18
3544;BME280;1786;52.870;9.578;2024-03-23T13:44:16;99592.94;;;14.20;54.22
3544;BME280;1786;52.870;9.578;2024-03-23T13:46:43;99572.19;;;14.71;54.52
3544;BME280;1786;52.870;9.578;2024-03-23T13:49:24;99572.63;;;15.30;55.95
3544;BME280;1786;52.870;9.578;2024-03-23T13:51:50;99570.59;;;15.86;53.98
3544;BME280;1786;52.870;9.578;2024-03-23T13:54:15;99567.72;;;16.39;52.59
3544;BME280;1786;52.870;9.578;2024-03-23T13:56:41;99557.28;;;16.46;51.11
3544;BME280;1786;52.870;9.578;2024-03-23T13:59:07;99547.31;;;16.56;50.78
3544;BME280;1786;52.870;9.578;2024-03-23T14:01:32;99552.19;;;16.77;49.63
3544;BME280;1786;52.870;9.578;2024-03-23T14:03:59;99562.19;;;17.34;49.20
3544;BME280;1786;52.870;9.578;2024-03-23T14:06:24;99575.03;;;17.39;48.04
3544;BME280;1786;52.870;9.578;2024-03-23T14:08:50;99577.03;;;17.53;48.50
3544;BME280;1786;52.870;9.578;2024-03-23T14:11:18;99566.16;;;17.95;48.20
3544;BME280;1786;52.870;9.578;2024-03-23T14:13:43;99576.16;;;18.18;47.70
3544;BME280;1786;52.870;9.578;2024-03-23T14:16:10;99578.88;;;18.49;47.44
3544;BME280;1786;52.870;9.578;2024-03-23T14:18:36;99577.75;;;18.35;47.15
3544;BME280;1786;52.870;9.578;2024-03-23T14:21:02;99570.69;;;18.51;46.55
3544;BME280;1786;52.870;9.578;2024-03-23T14:23:30;99565.78;;;18.63;45.89
3544;BME280;1786;52.870;9.578;2024-03-23T14:25:56;99568.75;;;18.76;46.23
3544;BME280;1786;52.870;9.578;2024-03-23T14:28:23;99558.59;;;19.02;45.55
3544;BME280;1786;52.870;9.578;2024-03-23T14:30:50;99577.53;;;18.93;45.82
3544;BME280;1786;52.870;9.578;2024-03-23T14:33:17;99603.84;;;16.26;49.07